Time;durP1;ratioP1;P1;durP2;ratioP2;P2;SDS_P1;SDS_P2;PMS_P1;PMS_P2;Temp;Humidity;BMP_temperature;BMP_pressure;BME280_temperature;BME280_humidity;BME280_pressure;Samples;Min_cycle;Max_cycle;Signal;HPM_P1;HPM_P2
2021/07/09 00:02:04;;;;;;;1.80;1.10;;;;;;;17.14;67.69;101013.47;4949536;29;20111;-82
2021/07/09 00:04:29;;;;;;;0.85;0.85;;;;;;;17.11;67.90;101003.81;4950755;29;20031;-82
2021/07/09 00:06:55;;;;;;;4.40;1.42;;;;;;;17.07;67.72;101002.81;4970432;29;20035;-81
2021/07/09 00:09:21;;;;;;;2.97;1.50;;;;;;;17.05;67.72;100993.97;4955518;28;20075;-78
2021/07/09 00:11:49;;;;;;;1.05;1.05;;;;;;;17.05;67.89;100993.97;4939858;29;20027;-78
2021/07/09 00:14:17;;;;;;;2.42;1.98;;;;;;;16.99;67.74;100984.09;4937555;29;20040;-79
2021/07/09 00:16:47;;;;;;;1.85;1.75;;;;;;;16.95;67.64;100989.38;4942238;29;20064;-78
2021/07/09 00:19:14;;;;;;;2.78;2.13;;;;;;;16.90;67.92;100998.56;4950035;28;20029;-80
2021/07/09 00:21:40;;;;;;;3.78;2.10;;;;;;;16.83;68.20;100998.06;4959079;29;20047;-80
2021/07/09 00:24:06;;;;;;;2.17;2.08;;;;;;;16.75;68.80;100990.44;4938865;28;20031;-82
2021/07/09 00:26:32;;;;;;;2.40;2.30;;;;;;;16.62;68.30;100986.44;4937348;29;20031;-82
2021/07/09 00:28:58;;;;;;;2.45;2.35;;;;;;;16.58;68.66;100988.94;4948085;28;20035;-82
2021/07/09 00:31:26;;;;;;;2.53;2.42;;;;;;;16.52;68.98;100992.88;4942827;29;20070;-80
2021/07/09 00:33:51;;;;;;;2.10;2.00;;;;;;;16.40;69.23;100984.19;4960986;29;20059;-82
2021/07/09 00:36:17;;;;;;;1.58;1.48;;;;;;;16.42;69.17;100993.00;4918916;29;20389;-81
2021/07/09 00:38:43;;;;;;;1.48;1.40;;;;;;;16.38;68.79;100991.91;4949494;29;20095;-81
2021/07/09 00:41:10;;;;;;;1.00;1.00;;;;;;;16.41;68.86;100999.63;4924923;29;20035;-79
2021/07/09 00:43:36;;;;;;;1.08;1.08;;;;;;;16.46;68.70;101005.09;4951674;29;20031;-79
2021/07/09 00:46:01;;;;;;;1.20;1.20;;;;;;;16.43;68.76;100983.59;4915214;29;20091;-79
2021/07/09 00:48:28;;;;;;;1.38;1.27;;;;;;;16.44;68.75;100993.53;4930630;29;20027;-80
2021/07/09 00:51:05;;;;;;;2.35;2.25;;;;;;;16.47;68.68;101000.41;4930833;29;20031;-78
2021/07/09 00:53:31;;;;;;;2.00;1.90;;;;;;;16.38;68.76;100991.91;4952963;29;20036;-78
2021/07/09 00:55:57;;;;;;;2.42;2.22;;;;;;;16.38;68.78;101001.03;4930211;29;20031;-78
2021/07/09 00:58:23;;;;;;;2.33;2.22;;;;;;;16.29;68.72;100993.69;4921786;29;20023;-77
2021/07/09 01:00:49;;;;;;;2.50;2.40;;;;;;;16.21;68.89;100989.63;4953004;28;20023;-78
2021/07/09 01:03:16;;;;;;;1.55;1.45;;;;;;;16.22;69.26;100983.81;4961451;29;20069;-79
2021/07/09 01:05:41;;;;;;;7.28;2.70;;;;;;;16.14;69.21;100980.84;4961950;28;20086;-79
2021/07/09 01:08:07;;;;;;;2.97;2.88;;;;;;;16.09;69.62;100978.97;4942451;29;20031;-79
2021/07/09 01:10:33;;;;;;;3.10;2.90;;;;;;;16.01;69.60;100982.34;4942739;29;20167;-80
2021/07/09 01:12:59;;;;;;;2.47;2.38;;;;;;;15.94;69.78;100981.84;4941747;29;20038;-80
2021/07/09 01:15:24;;;;;;;3.53;3.33;;;;;;;15.85;70.21;100979.69;4945631;28;20058;-79
2021/07/09 01:17:51;;;;;;;5.20;4.68;;;;;;;15.79;70.67;100977.28;4939829;29;20062;-78
2021/07/09 01:20:19;;;;;;;3.50;3.30;;;;;;;15.72;71.04;100966.53;4946341;29;20023;-79
2021/07/09 01:22:47;;;;;;;3.45;3.25;;;;;;;15.57;71.59;100956.47;4942405;29;20026;-81
2021/07/09 01:25:17;;;;;;;4.50;4.10;;;;;;;15.51;71.83;100972.22;4946218;29;20031;-82
2021/07/09 01:27:45;;;;;;;4.40;4.10;;;;;;;15.37;72.65;100965.69;4958830;28;20026;-81
2021/07/09 01:30:17;;;;;;;4.63;4.20;;;;;;;15.33;72.76;100967.34;4946079;29;20055;-80
2021/07/09 01:32:42;;;;;;;4.55;3.33;;;;;;;15.28;72.88;100970.16;4972298;28;20027;-82
2021/07/09 01:35:10;;;;;;;3.47;3.17;;;;;;;15.19;72.85;100962.47;4956940;29;20035;-81
2021/07/09 01:37:35;;;;;;;4.38;3.90;;;;;;;15.13;72.99;100958.09;4960441;28;20107;-83
2021/07/09 01:40:03;;;;;;;3.85;3.65;;;;;;;15.11;72.89;100965.84;4960957;29;20039;-83
2021/07/09 01:42:28;;;;;;;4.45;3.03;;;;;;;15.05;73.14;100960.63;4937938;29;20038;-82
2021/07/09 01:44:54;;;;;;;2.83;2.65;;;;;;;15.00;72.98;100964.25;4959150;28;20032;-82
2021/07/09 01:47:19;;;;;;;3.55;3.45;;;;;;;14.96;73.72;100969.47;4947660;28;20031;-81
2021/07/09 01:49:51;;;;;;;3.72;3.40;;;;;;;14.93;73.73;100970.03;4929379;29;20402;-80
2021/07/09 01:52:16;;;;;;;2.92;2.83;;;;;;;14.86;73.64;100964.00;4953538;28;20028;-80
2021/07/09 01:54:44;;;;;;;4.18;3.88;;;;;;;14.75;73.82;100959.69;4937272;29;20035;-79
2021/07/09 01:57:11;;;;;;;4.22;3.92;;;;;;;14.73;74.19;100970.94;4934331;29;20087;-83
2021/07/09 01:59:38;;;;;;;5.20;4.32;;;;;;;14.63;75.14;100959.97;4948206;28;20050;-79
2021/07/09 02:02:05;;;;;;;4.25;4.05;;;;;;;14.61;75.09;100956.66;4956970;29;20502;-79
2021/07/09 02:04:30;;;;;;;4.32;3.88;;;;;;;14.58;75.36;100962.72;4948133;28;20126;-80
2021/07/09 02:06:56;;;;;;;4.47;4.13;;;;;;;14.55;75.77;100968.78;4941104;29;20088;-80
2021/07/09 02:09:21;;;;;;;4.82;4.53;;;;;;;14.47;75.54;100962.75;4925440;29;20427;-81
2021/07/09 02:11:46;;;;;;;5.78;4.45;;;;;;;14.45;75.95;100959.44;4934464;29;20043;-81
2021/07/09 02:14:12;;;;;;;5.18;4.88;;;;;;;14.42;76.15;100954.50;4954549;28;20023;-80
2021/07/09 02:16:40;;;;;;;7.22;4.93;;;;;;;14.39;77.18;100955.06;4944945;29;20043;-74
2021/07/09 02:19:06;;;;;;;6.20;5.80;;;;;;;14.26;77.58;100947.38;4952085;28;20118;-77
2021/07/09 02:21:31;;;;;;;6.88;6.40;;;;;;;14.25;77.87;100942.97;4930047;29;20081;-76
2021/07/09 02:23:57;;;;;;;5.47;5.05;;;;;;;14.25;78.51;100948.47;4940263;29;20062;-76
2021/07/09 02:26:22;;;;;;;6.25;5.70;;;;;;;14.20;78.53;100945.75;4947322;29;20027;-76
2021/07/09 02:28:48;;;;;;;7.05;5.85;;;;;;;14.17;78.56;100946.31;4966033;29;20043;-74
2021/07/09 02:31:14;;;;;;;5.97;5.47;;;;;;;14.13;79.10;100941.38;4954401;29;20043;-75
2021/07/09 02:33:39;;;;;;;7.00;6.30;;;;;;;14.14;79.66;100945.75;4930634;29;20050;-79
2021/07/09 02:36:05;;;;;;;6.55;6.05;;;;;;;14.12;79.55;100944.41;4941443;28;20107;-78
2021/07/09 02:38:30;;;;;;;6.70;5.97;;;;;;;14.13;79.31;100944.13;4952324;29;20046;-74
2021/07/09 02:40:58;;;;;;;6.38;5.85;;;;;;;14.14;79.23;100948.50;4919082;29;20035;-75
2021/07/09 02:43:24;;;;;;;6.32;5.80;;;;;;;14.14;79.06;100937.50;4921917;29;20027;-74
2021/07/09 02:45:49;;;;;;;7.10;5.85;;;;;;;14.12;79.28;100939.72;4904409;29;20046;-74
2021/07/09 02:48:17;;;;;;;6.40;5.65;;;;;;;14.15;79.29;100949.34;4943822;29;20035;-74
2021/07/09 02:50:42;;;;;;;6.63;5.82;;;;;;;14.10;79.76;100941.88;4951390;28;20429;-73
2021/07/09 02:53:08;;;;;;;5.78;5.43;;;;;;;14.11;79.62;100949.06;4952119;29;20106;-71
2021/07/09 02:55:34;;;;;;;6.97;6.35;;;;;;;14.00;79.78;100930.91;4914978;28;20024;-74
2021/07/09 02:57:59;;;;;;;6.20;5.68;;;;;;;14.01;79.72;100938.06;4938906;29;20052;-75
2021/07/09 03:00:25;;;;;;;7.07;6.40;;;;;;;13.95;80.49;100939.19;4954113;29;20031;-73
2021/07/09 03:02:50;;;;;;;7.03;6.35;;;;;;;13.91;80.25;100935.31;4933562;29;20042;-71
2021/07/09 03:05:16;;;;;;;7.60;6.97;;;;;;;13.93;80.39;100936.72;4929531;29;20880;-73
2021/07/09 03:07:41;;;;;;;6.97;6.22;;;;;;;13.91;80.50;100938.88;4934086;29;20027;-74
2021/07/09 03:10:09;;;;;;;6.60;6.10;;;;;;;13.92;81.04;100936.97;4938352;29;20154;-75
2021/07/09 03:12:35;;;;;;;7.18;6.40;;;;;;;13.90;80.68;100936.41;4935374;29;20027;-76
2021/07/09 03:15:02;;;;;;;6.15;5.45;;;;;;;13.90;80.39;100936.41;4947689;29;20034;-76
2021/07/09 03:17:28;;;;;;;6.97;6.40;;;;;;;13.87;80.55;100928.72;4924668;28;20063;-76
2021/07/09 03:19:53;;;;;;;7.15;6.45;;;;;;;13.91;80.32;100938.06;4958964;29;20394;-77
2021/07/09 03:22:19;;;;;;;14.68;6.53;;;;;;;13.88;80.65;100933.13;4933433;29;20039;-75
2021/07/09 03:24:44;;;;;;;7.65;6.93;;;;;;;13.88;80.63;100933.13;4960251;29;20082;-77
2021/07/09 03:27:10;;;;;;;7.63;7.13;;;;;;;13.85;81.03;100933.69;4955614;28;20024;-76
2021/07/09 03:29:36;;;;;;;14.02;8.10;;;;;;;13.82;80.80;100934.25;4955935;28;20466;-77
2021/07/09 03:32:02;;;;;;;9.15;7.82;;;;;;;13.83;80.89;100930.38;4958837;28;20047;-79
2021/07/09 03:34:27;;;;;;;10.50;7.68;;;;;;;13.73;81.15;100920.22;4944806;29;20030;-78
2021/07/09 03:36:52;;;;;;;13.68;8.18;;;;;;;13.72;81.96;100935.88;4921723;29;20035;-76
2021/07/09 03:39:18;;;;;;;9.80;8.40;;;;;;;13.71;81.51;100939.75;4953352;28;20475;-77
2021/07/09 03:41:44;;;;;;;10.68;8.13;;;;;;;13.65;82.36;100924.31;4964284;29;20027;-78
2021/07/09 03:44:11;;;;;;;8.93;8.02;;;;;;;13.68;81.76;100934.78;4959395;28;20027;-77
2021/07/09 03:46:37;;;;;;;14.50;8.38;;;;;;;13.69;81.74;100936.41;4953020;29;20091;-77
2021/07/09 03:49:03;;;;;;;12.27;8.27;;;;;;;13.68;81.64;100932.03;4959737;29;20039;-78
2021/07/09 03:51:29;;;;;;;8.27;7.60;;;;;;;13.65;82.38;100927.06;4959486;29;20028;-77
2021/07/09 03:53:55;;;;;;;10.18;8.30;;;;;;;13.67;81.77;100932.28;4949883;28;20035;-78
2021/07/09 03:56:28;;;;;;;7.53;6.82;;;;;;;13.73;82.15;100932.03;4955831;29;20028;-77
2021/07/09 03:58:54;;;;;;;8.35;7.65;;;;;;;13.65;81.75;100927.06;4946034;29;20031;-77
2021/07/09 04:01:19;;;;;;;8.65;7.63;;;;;;;13.72;81.66;100938.63;4956411;29;20027;-77
2021/07/09 04:03:47;;;;;;;6.50;6.05;;;;;;;13.65;81.61;100929.00;4943192;29;20042;-77
2021/07/09 04:06:13;;;;;;;8.07;7.38;;;;;;;13.73;81.05;100937.53;4937696;29;20035;-77
2021/07/09 04:08:38;;;;;;;17.80;9.73;;;;;;;13.75;81.96;100945.50;4948451;28;20030;-78
2021/07/09 04:11:04;;;;;;;8.85;8.02;;;;;;;13.78;82.15;100937.53;4950730;29;20040;-78
2021/07/09 04:13:30;;;;;;;12.27;8.85;;;;;;;13.81;82.32;100927.91;4945898;28;20474;-77
2021/07/09 04:15:55;;;;;;;14.25;9.00;;;;;;;13.84;81.68;100934.78;4960741;28;20043;-76
2021/07/09 04:18:21;;;;;;;13.38;8.82;;;;;;;13.87;81.57;100931.47;4922695;29;20189;-77
2021/07/09 04:20:47;;;;;;;12.77;8.35;;;;;;;13.89;81.93;100934.78;4943447;29;20027;-77
2021/07/09 04:23:13;;;;;;;11.70;8.35;;;;;;;13.94;81.71;100945.75;4939847;29;20024;-77
2021/07/09 04:25:38;;;;;;;8.70;6.75;;;;;;;13.98;82.16;100948.81;4939512;29;20047;-78
2021/07/09 04:28:04;;;;;;;8.35;7.65;;;;;;;14.00;81.41;100952.91;4939358;29;20083;-77
2021/07/09 04:30:29;;;;;;;8.02;7.35;;;;;;;14.02;81.97;100950.72;4948615;28;20031;-78
2021/07/09 04:32:55;;;;;;;7.68;7.07;;;;;;;14.07;81.65;100950.69;4934772;29;20103;-79
2021/07/09 04:35:21;;;;;;;9.27;6.53;;;;;;;14.10;81.74;100952.91;4947681;28;20090;-78
2021/07/09 04:37:47;;;;;;;10.73;7.57;;;;;;;14.14;81.10;100956.75;4955327;29;20046;-78
2021/07/09 04:40:12;;;;;;;7.00;6.38;;;;;;;14.19;81.79;100957.84;4939528;29;20028;-79
2021/07/09 04:42:38;;;;;;;8.15;7.43;;;;;;;14.20;81.19;100962.25;4938900;29;20031;-79
2021/07/09 04:45:05;;;;;;;8.60;7.40;;;;;;;14.28;81.48;100958.91;4935106;28;20066;-78
2021/07/09 04:47:31;;;;;;;9.55;8.35;;;;;;;14.31;81.35;100953.69;4962117;29;20035;-77
2021/07/09 04:49:56;;;;;;;7.25;6.65;;;;;;;14.34;80.77;100952.31;4932851;28;20429;-76
2021/07/09 04:52:22;;;;;;;9.35;8.35;;;;;;;14.35;80.81;100953.94;4936732;29;20070;-77
2021/07/09 04:54:48;;;;;;;11.15;8.75;;;;;;;14.26;80.90;100939.13;4954399;29;20074;-78
2021/07/09 04:57:13;;;;;;;8.68;7.88;;;;;;;14.35;80.99;100951.19;4953077;28;20034;-77
2021/07/09 04:59:39;;;;;;;11.82;8.95;;;;;;;14.36;81.24;100952.03;4934771;29;20036;-78
2021/07/09 05:02:04;;;;;;;11.73;9.30;;;;;;;14.37;81.83;100957.28;4937593;29;20038;-78
2021/07/09 05:04:29;;;;;;;9.57;8.57;;;;;;;14.38;81.86;100953.41;4939332;29;20033;-77
2021/07/09 05:06:55;;;;;;;8.68;7.97;;;;;;;14.40;81.83;100942.94;4943292;28;20386;-78
2021/07/09 05:09:20;;;;;;;11.80;9.05;;;;;;;14.44;81.41;100944.03;4923830;29;20042;-78
2021/07/09 05:11:46;;;;;;;11.75;8.30;;;;;;;14.56;81.17;100951.16;4945976;28;20052;-78
2021/07/09 05:14:12;;;;;;;10.15;8.75;;;;;;;14.57;81.44;100961.91;4916093;29;20028;-79
2021/07/09 05:16:38;;;;;;;14.50;9.43;;;;;;;14.62;81.37;100963.84;4923204;29;20114;-80
2021/07/09 05:19:04;;;;;;;9.40;8.40;;;;;;;14.65;81.71;100958.59;4933802;29;20185;-78
2021/07/09 05:21:30;;;;;;;11.57;9.77;;;;;;;14.76;81.49;100958.53;4924450;28;20034;-77
2021/07/09 05:23:58;;;;;;;11.57;8.82;;;;;;;14.85;81.02;100967.91;4942193;29;20028;-78
2021/07/09 05:26:24;;;;;;;8.35;7.63;;;;;;;14.88;81.09;100967.31;4943637;28;20043;-78
2021/07/09 05:28:49;;;;;;;9.43;7.65;;;;;;;15.02;80.91;100975.78;4945587;28;20047;-77
2021/07/09 05:31:15;;;;;;;8.05;7.53;;;;;;;15.15;80.72;100972.41;4940259;29;20028;-78
2021/07/09 05:33:41;;;;;;;9.45;8.57;;;;;;;15.25;81.08;100977.06;4945592;28;20488;-78
2021/07/09 05:36:06;;;;;;;7.93;7.18;;;;;;;15.29;80.20;100972.63;4952226;29;20027;-78
2021/07/09 05:38:32;;;;;;;8.00;7.32;;;;;;;15.35;79.99;100973.41;4950047;28;20050;-77
2021/07/09 05:40:57;;;;;;;7.35;6.95;;;;;;;15.42;79.71;100976.69;4946538;29;20118;-77
2021/07/09 05:43:23;;;;;;;9.80;7.95;;;;;;;15.45;79.74;100981.63;4951465;28;20023;-77
2021/07/09 05:45:48;;;;;;;8.10;7.45;;;;;;;15.50;79.11;100986.28;4968850;29;20070;-76
2021/07/09 05:48:13;;;;;;;7.28;6.70;;;;;;;15.49;79.52;100985.47;4948703;29;20138;-76
2021/07/09 05:50:40;;;;;;;8.57;7.32;;;;;;;15.54;78.83;100984.59;4954088;29;20023;-76
2021/07/09 05:53:06;;;;;;;7.93;7.13;;;;;;;15.60;78.86;100996.41;4947560;29;20023;-76
2021/07/09 05:55:32;;;;;;;7.55;6.93;;;;;;;15.65;78.50;100983.44;4953366;29;20031;-77
2021/07/09 05:57:58;;;;;;;7.22;6.32;;;;;;;15.69;78.48;100991.94;4930519;28;20039;-76
2021/07/09 06:00:23;;;;;;;7.57;6.85;;;;;;;15.69;77.99;100986.41;4931526;29;20090;-78
2021/07/09 06:02:49;;;;;;;7.88;5.93;;;;;;;15.77;77.91;101005.13;4930562;28;20035;-80
2021/07/09 06:05:15;;;;;;;6.82;6.25;;;;;;;15.77;77.33;101009.78;4936446;29;20040;-77
2021/07/09 06:07:40;;;;;;;7.10;6.50;;;;;;;15.75;77.95;101012.84;4937329;29;20054;-76
2021/07/09 06:10:06;;;;;;;8.07;6.65;;;;;;;15.77;77.64;100999.59;4949937;29;20498;-78
2021/07/09 06:12:33;;;;;;;6.90;6.50;;;;;;;15.88;77.64;101001.19;4929606;29;20035;-76
2021/07/09 06:14:58;;;;;;;6.03;5.70;;;;;;;15.99;77.21;101006.63;4955900;28;20038;-76
2021/07/09 06:17:28;;;;;;;6.43;5.80;;;;;;;16.09;77.04;101017.59;4960012;28;20071;-77
2021/07/09 06:20:14;;;;;;;6.40;5.82;;;;;;;16.17;76.59;101013.38;4936843;29;20829;-77
2021/07/09 06:22:40;;;;;;;5.53;5.22;;;;;;;16.27;76.28;101016.06;4955661;29;20470;-76
2021/07/09 06:25:06;;;;;;;7.40;5.95;;;;;;;16.30;75.98;101006.38;4942289;29;20039;-79
2021/07/09 06:27:32;;;;;;;5.65;4.88;;;;;;;16.35;75.63;101012.66;4944829;29;20023;-76
2021/07/09 06:29:58;;;;;;;5.32;5.03;;;;;;;16.40;75.22;101006.28;4938988;29;20035;-77
2021/07/09 06:32:23;;;;;;;5.97;5.53;;;;;;;16.43;75.00;101011.22;4943890;29;20039;-76
2021/07/09 06:34:51;;;;;;;5.43;4.97;;;;;;;16.44;75.06;101007.34;4951574;28;20035;-77
2021/07/09 06:37:21;;;;;;;5.28;4.78;;;;;;;16.56;74.70;101007.75;4948096;29;20067;-78
2021/07/09 06:39:50;;;;;;;5.15;4.85;;;;;;;16.73;74.60;101014.75;4941229;29;20075;-76
2021/07/09 06:42:20;;;;;;;4.72;4.35;;;;;;;16.67;74.14;100999.34;4942675;29;20505;-76
2021/07/09 06:44:47;;;;;;;5.32;4.90;;;;;;;16.78;73.69;101014.72;4940913;28;20040;-76
2021/07/09 06:47:13;;;;;;;4.88;4.47;;;;;;;16.77;73.57;101010.28;4959816;29;20023;-75
2021/07/09 06:49:38;;;;;;;4.82;4.43;;;;;;;16.75;73.43;101013.34;4917127;28;20078;-76
2021/07/09 06:52:04;;;;;;;4.55;4.15;;;;;;;16.74;73.51;101016.41;4955832;29;20032;-74
2021/07/09 06:54:44;;;;;;;;;;;;;;;;;;;;;
2021/07/09 06:57:10;;;;;;;4.38;4.15;;;;;;;16.73;73.38;101012.00;4943013;29;20126;-74
2021/07/09 06:59:35;;;;;;;4.20;3.83;;;;;;;16.75;73.70;101015.28;4953511;29;20031;-77
2021/07/09 07:02:01;;;;;;;4.40;4.20;;;;;;;16.72;73.38;101007.59;4948272;28;20023;-77
2021/07/09 07:04:27;;;;;;;3.88;3.58;;;;;;;16.88;73.16;101016.53;4937112;29;20438;-75
2021/07/09 07:06:52;;;;;;;4.47;4.25;;;;;;;16.93;72.40;101011.78;4944896;28;20090;-74
2021/07/09 07:09:18;;;;;;;3.85;2.53;;;;;;;17.04;72.15;101009.72;4920975;29;20036;-72
2021/07/09 07:11:44;;;;;;;3.05;2.90;;;;;;;17.19;71.97;101014.22;4938060;29;20110;-75
2021/07/09 07:14:10;;;;;;;3.03;2.92;;;;;;;17.36;71.32;101010.13;4952741;29;20051;-74
2021/07/09 07:16:36;;;;;;;2.58;2.47;;;;;;;17.52;71.25;101008.81;4941119;28;20086;-74
2021/07/09 10:04:30;;;;;;;1.20;1.20;;;;;;;24.03;44.08;100968.97;4945595;28;20090;-77
2021/07/09 10:14:23;;;;;;;0.90;0.90;;;;;;;24.18;45.79;100989.84;4951121;28;20666;-77
2021/07/09 10:16:51;;;;;;;0.75;0.75;;;;;;;24.47;44.96;100983.28;4944431;29;20137;-76
2021/07/09 10:19:27;;;;;;;2.53;0.82;;;;;;;24.76;43.05;100992.66;4952100;28;20035;-76
2021/07/09 10:21:55;;;;;;;1.15;1.08;;;;;;;24.72;42.05;100974.94;4942262;29;20102;-76
2021/07/09 10:24:20;;;;;;;0.90;0.80;;;;;;;24.76;42.18;100978.66;4957187;29;20086;-77
2021/07/09 10:26:51;;;;;;;0.80;0.80;;;;;;;24.81;42.97;100984.03;4922540;29;20036;-77
2021/07/09 10:29:30;;;;;;;1.20;1.15;;;;;;;24.88;42.52;100983.44;4938192;28;20090;-77
2021/07/09 10:31:55;;;;;;;1.38;1.27;;;;;;;24.83;42.12;100981.69;4957614;28;20094;-79
2021/07/09 10:34:37;;;;;;;0.98;0.98;;;;;;;25.03;43.29;100985.53;4918638;28;20451;-78
2021/07/09 10:37:09;;;;;;;1.42;1.33;;;;;;;25.78;43.28;100983.41;4932796;29;20123;-77
2021/07/09 10:39:49;;;;;;;3.80;1.25;;;;;;;26.63;39.31;100980.47;4916664;29;20092;-79
2021/07/09 10:42:21;;;;;;;1.20;1.20;;;;;;;26.54;39.44;100991.88;4930481;29;20087;-78
2021/07/09 10:44:58;;;;;;;1.50;1.40;;;;;;;26.43;39.83;100987.97;4928119;29;20035;-76
2021/07/09 10:47:57;;;;;;;1.08;1.08;;;;;;;26.42;40.08;100973.16;4963086;29;20062;-79
2021/07/09 10:50:28;;;;;;;1.00;1.00;;;;;;;26.25;39.07;100982.72;4946851;28;20038;-78
2021/07/09 10:52:58;;;;;;;0.88;0.88;;;;;;;25.76;39.13;100963.34;4953533;29;20120;-75
2021/07/09 10:55:24;;;;;;;0.93;0.93;;;;;;;25.40;38.88;100993.09;4939100;29;20063;-77
2021/07/09 10:58:08;;;;;;;1.20;1.10;;;;;;;24.98;40.76;100968.19;4938687;29;20023;-77
2021/07/09 11:01:05;;;;;;;1.25;0.88;;;;;;;25.05;40.89;100982.41;4942149;28;20031;-77
2021/07/09 11:03:31;;;;;;;0.73;0.63;;;;;;;25.26;41.17;100983.06;4951275;28;20048;-77
2021/07/09 11:06:14;;;;;;;1.02;0.70;;;;;;;25.46;40.54;100974.88;4946041;28;20032;-77
2021/07/09 11:08:42;;;;;;;0.80;0.80;;;;;;;25.45;40.82;100976.03;4924318;29;20936;-76
2021/07/09 11:11:13;;;;;;;3.65;0.68;;;;;;;25.55;39.65;100983.13;4955729;28;20038;-76
2021/07/09 11:13:41;;;;;;;0.70;0.70;;;;;;;25.89;39.42;100975.28;4949934;28;20027;-77
2021/07/09 13:18:28;;;;;;;0.98;0.93;;;;;;;30.63;28.72;100920.31;4563528;28;20141;-77
2021/07/09 13:21:03;;;;;;;0.63;0.63;;;;;;;30.26;29.29;100928.88;4947554;28;20462;-76
2021/07/09 13:23:28;;;;;;;;;;;;;;;30.41;29.54;100925.00;4936294;28;20023;-77
2021/07/09 13:26:32;;;;;;;0.60;0.60;;;;;;;30.72;29.42;100928.44;4958838;28;19929;-77
2021/07/09 13:29:00;;;;;;;0.43;0.43;;;;;;;31.46;28.08;100915.16;4953753;28;20027;-76
2021/07/09 13:38:24;;;;;;;0.40;0.40;;;;;;;33.56;25.14;100925.22;4957981;28;20533;-81
2021/07/09 13:41:30;;;;;;;0.85;0.50;;;;;;;33.89;24.45;100906.00;4932287;29;20035;-76
2021/07/09 13:48:05;;;;;;;0.45;0.40;;;;;;;35.26;24.36;100930.28;4964574;28;20062;-75
2021/07/09 13:51:16;;;;;;;1.27;0.20;;;;;;;36.45;22.48;100942.84;4954474;29;20125;-78
2021/07/09 13:54:34;;;;;;;0.40;0.38;;;;;;;37.71;22.05;100931.81;4921951;29;20031;-78
2021/07/09 13:57:35;;;;;;;;;;;;;;;;;;;;;
2021/07/09 14:00:41;;;;;;;0.30;0.30;;;;;;;36.99;20.94;100924.78;4925636;29;20103;-76
2021/07/09 14:03:54;;;;;;;0.57;0.30;;;;;;;36.22;21.04;100923.69;4939549;28;20058;-77
2021/07/09 14:06:32;;;;;;;0.52;0.40;;;;;;;33.98;22.90;100902.72;4954686;29;20102;-76
2021/07/09 14:09:41;;;;;;;;;;;;;;;;;;;;;
2021/07/09 14:12:41;;;;;;;3.55;0.43;;;;;;;31.90;25.98;100915.31;4942686;29;20147;-77
2021/07/09 14:15:30;;;;;;;0.30;0.30;;;;;;;31.85;26.24;100903.19;4948976;29;20466;-78
2021/07/09 14:18:04;;;;;;;0.40;0.40;;;;;;;31.71;26.71;100886.19;4932527;28;20062;-78
2021/07/09 14:21:23;;;;;;;;;;;;;;;;;;;;;
2021/07/09 14:23:56;;;;;;;0.32;0.32;;;;;;;29.76;28.60;100879.25;4953430;28;20114;-77
2021/07/09 14:29:29;;;;;;;0.35;0.20;;;;;;;28.00;32.10;100882.38;4927471;29;20088;-80
2021/07/09 14:32:50;;;;;;;;;;;;;;;;;;;;;
2021/07/09 14:39:58;;;;;;;;;;;;;;;;;;;;;
2021/07/09 14:46:35;;;;;;;;;;;;;;;;;;;;;
2021/07/09 14:49:53;;;;;;;;;;;;;;;;;;;;;
2021/07/09 15:06:54;;;;;;;0.38;0.30;;;;;;;35.75;22.24;100869.56;4759377;30;20039;-77
2021/07/09 15:20:06;;;;;;;;;;;;;;;;;;;;;
2021/07/09 15:26:15;;;;;;;1.45;0.20;;;;;;;36.53;20.23;100843.84;4770390;29;20038;-76
2021/07/09 15:28:58;;;;;;;0.20;0.20;;;;;;;37.18;18.97;100862.53;4805621;29;20042;-80
2021/07/09 15:32:21;;;;;;;0.10;0.10;;;;;;;36.88;18.89;100844.41;4850557;29;20105;-78
2021/07/09 15:39:05;;;;;;;0.28;0.20;;;;;;;35.29;20.12;100835.69;4818599;29;20483;-78
2021/07/09 15:41:33;;;;;;;0.30;0.30;;;;;;;34.17;21.14;100863.63;4879517;29;20196;-78
2021/07/09 16:19:12;;;;;;;0.40;0.40;;;;;;;27.88;30.38;100829.97;4805058;29;20419;-80
2021/07/09 17:24:03;;;;;;;0.20;0.20;;;;;;;22.90;40.71;100814.53;4901735;29;20050;-82
2021/07/09 17:26:29;;;;;;;0.20;0.20;;;;;;;22.24;42.31;100782.47;4847693;29;20078;-79
2021/07/09 18:41:32;;;;;;;0.28;0.28;;;;;;;20.25;47.94;100772.94;4932278;29;20080;-73
2021/07/09 18:44:24;;;;;;;2.15;0.40;;;;;;;20.09;48.68;100771.75;4941113;29;20028;-76
2021/07/09 18:46:50;;;;;;;0.30;0.30;;;;;;;20.01;49.20;100762.28;4934937;29;22334;-74
2021/07/09 18:56:30;;;;;;;0.47;0.47;;;;;;;19.42;51.26;100765.22;4920574;29;20038;-77
2021/07/09 19:03:10;;;;;;;;;;;;;;;;;;;;;
2021/07/09 20:12:37;;;;;;;1.67;0.70;;;;;;;16.45;60.81;100727.44;4815323;29;20066;-74
2021/07/09 20:15:29;;;;;;;;;;;;;;;;;;;;;
2021/07/09 22:16:14;;;;;;;1.88;1.70;;;;;;;16.71;62.71;100738.09;6045661;23;4825947;-76
2021/07/09 22:25:39;;;;;;;1.95;1.85;;;;;;;16.48;63.66;100724.06;6136674;23;20070;-75
2021/07/09 22:28:08;;;;;;;2.05;1.70;;;;;;;16.39;63.65;100728.63;6101875;23;20096;-75
2021/07/09 22:30:33;;;;;;;2.45;1.45;;;;;;;16.25;63.74;100706.44;6200871;23;20008;-81
2021/07/09 22:33:10;;;;;;;0.90;0.90;;;;;;;16.38;63.74;100721.47;6266076;23;20415;-80
2021/07/09 22:35:36;;;;;;;1.23;1.13;;;;;;;16.27;63.48;100700.66;6261997;23;20019;-80
2021/07/09 22:38:02;;;;;;;1.30;1.08;;;;;;;16.21;63.63;100706.25;6235364;23;20004;-76
2021/07/09 22:40:30;;;;;;;1.00;1.00;;;;;;;16.32;64.09;100734.50;6230454;23;20437;-78
2021/07/09 22:42:56;;;;;;;1.23;1.13;;;;;;;16.21;63.87;100717.28;6235067;23;19992;-80
2021/07/09 22:45:22;;;;;;;1.40;1.30;;;;;;;16.33;64.10;100718.78;6236498;23;20010;-82
2021/07/09 22:47:48;;;;;;;2.30;1.50;;;;;;;16.29;64.02;100726.00;6236001;23;20008;-80
2021/07/09 22:50:28;;;;;;;1.65;1.20;;;;;;;16.18;64.53;100717.88;6262254;23;20018;-80
2021/07/09 22:52:57;;;;;;;2.22;1.50;;;;;;;16.05;64.93;100704.81;6235777;23;20004;-79
2021/07/09 22:55:28;;;;;;;1.75;1.65;;;;;;;16.07;65.61;100713.59;6232805;23;20085;-78
2021/07/09 22:58:05;;;;;;;2.00;1.30;;;;;;;16.07;65.15;100715.56;6201053;23;20067;-78
2021/07/09 23:00:38;;;;;;;2.20;1.75;;;;;;;16.01;65.70;100714.78;6179337;23;20008;-78
2021/07/09 23:03:24;;;;;;;1.33;1.23;;;;;;;16.07;65.80;100710.84;6205141;23;20011;-79
2021/07/09 23:05:49;;;;;;;1.08;1.05;;;;;;;15.97;65.74;100694.44;6200167;23;20009;-78
2021/07/09 23:08:21;;;;;;;1.63;1.42;;;;;;;15.82;65.50;100674.22;6233237;23;19997;-78
2021/07/09 23:10:56;;;;;;;;;;;;;;;;;;;;;
2021/07/09 23:13:23;;;;;;;3.00;1.20;;;;;;;15.60;66.30;100673.91;6230775;23;20032;-81
2021/07/09 23:15:49;;;;;;;1.27;1.20;;;;;;;15.70;66.13;100696.66;6228285;23;20016;-78
2021/07/09 23:18:27;;;;;;;2.75;1.77;;;;;;;15.69;66.30;100694.19;6229470;23;20011;-79
2021/07/09 23:20:53;;;;;;;1.08;1.08;;;;;;;15.58;66.59;100681.63;6203981;23;20039;-78
2021/07/09 23:23:36;;;;;;;1.23;1.20;;;;;;;15.51;66.78;100677.31;6204725;23;20001;-79
2021/07/09 23:26:02;;;;;;;3.53;1.30;;;;;;;15.49;67.05;100690.56;6155756;23;20005;-80
2021/07/09 23:28:50;;;;;;;1.23;1.23;;;;;;;15.39;67.02;100657.63;6230710;23;20012;-80
2021/07/09 23:31:16;;;;;;;3.05;2.08;;;;;;;15.53;67.01;100702.63;6159959;23;20068;-83
2021/07/09 23:33:47;;;;;;;2.20;1.65;;;;;;;15.52;66.94;100695.50;6210575;23;20057;-83
2021/07/09 23:36:56;;;;;;;2.50;2.30;;;;;;;15.36;67.63;100674.72;6190800;23;20007;-82
2021/07/09 23:39:34;;;;;;;3.42;2.63;;;;;;;15.40;68.27;100692.31;6220691;23;20032;-81
2021/07/09 23:42:05;;;;;;;3.42;3.05;;;;;;;15.24;67.95;100668.78;6211915;23;20032;-82
2021/07/09 23:44:43;;;;;;;2.38;2.15;;;;;;;15.44;68.22;100698.88;6234323;23;20001;-81
2021/07/09 23:47:58;;;;;;;2.30;2.20;;;;;;;15.36;68.34;100675.53;6177989;23;20012;-79
2021/07/09 23:50:24;;;;;;;2.30;2.10;;;;;;;15.34;68.22;100677.75;6201305;23;20063;-79
2021/07/09 23:53:00;;;;;;;;;;;;;;;;;;;;;
2021/07/09 23:56:16;;;;;;;;;;;;;;;;;;;;;
2021/07/09 23:58:54;;;;;;;1.98;1.88;;;;;;;15.51;68.08;100688.31;6203065;23;20039;-78
